createdAt,value
2018-08-04T00:01:14.984Z,63.50
2018-08-04T00:03:43.520Z,64.00
2018-08-04T00:06:12.049Z,64.20
2018-08-04T00:08:40.574Z,64.50
2018-08-04T00:11:09.076Z,64.80
2018-08-04T00:13:37.629Z,64.70
2018-08-04T00:16:06.242Z,64.60
2018-08-04T00:18:34.812Z,65.10
2018-08-04T00:21:03.387Z,65.20
2018-08-04T00:23:31.902Z,65.20
2018-08-04T00:26:00.421Z,65.50
2018-08-04T00:28:28.999Z,65.50
2018-08-04T00:30:57.544Z,65.40
2018-08-04T00:33:26.070Z,65.50
2018-08-04T00:35:54.609Z,66.40
2018-08-04T00:38:23.123Z,67.00
2018-08-04T00:40:51.647Z,67.10
2018-08-04T00:43:20.216Z,67.00
2018-08-04T00:45:48.780Z,67.00
2018-08-04T00:48:17.310Z,67.10
2018-08-04T00:50:45.828Z,67.40
2018-08-04T00:53:14.337Z,67.30
2018-08-04T00:55:42.887Z,67.80
2018-08-04T00:58:11.417Z,67.80
2018-08-04T01:00:39.976Z,67.80
2018-08-04T01:03:08.538Z,68.00
2018-08-04T01:05:37.042Z,68.50
2018-08-04T01:08:05.574Z,68.80
2018-08-04T01:10:34.160Z,69.10
2018-08-04T01:13:02.680Z,69.30
2018-08-04T01:15:31.228Z,69.30
2018-08-04T01:17:59.817Z,69.40
2018-08-04T01:20:28.368Z,69.50
2018-08-04T01:22:56.887Z,69.70
2018-08-04T01:25:25.400Z,70.00
2018-08-04T01:27:53.954Z,70.10
2018-08-04T01:30:22.500Z,70.30
2018-08-04T01:32:51.035Z,70.20
2018-08-04T01:35:19.551Z,70.10
2018-08-04T01:37:48.056Z,70.00
2018-08-04T01:40:16.627Z,70.50
2018-08-04T01:42:45.195Z,70.60
2018-08-04T01:45:13.721Z,70.80
2018-08-04T01:47:42.248Z,70.70
2018-08-04T01:50:10.807Z,70.80
2018-08-04T01:52:39.343Z,71.20
2018-08-04T01:55:07.864Z,71.60
2018-08-04T01:57:36.402Z,71.70
2018-08-04T02:00:05.094Z,71.70
2018-08-04T02:02:33.627Z,71.40
2018-08-04T02:05:02.152Z,71.70
2018-08-04T02:07:30.686Z,72.00
2018-08-04T02:09:59.270Z,72.30
2018-08-04T02:12:27.996Z,72.70
2018-08-04T02:14:56.538Z,72.90
2018-08-04T02:17:25.064Z,73.10
2018-08-04T02:19:53.610Z,73.50
2018-08-04T02:22:22.147Z,73.60
2018-08-04T02:24:50.666Z,73.60
2018-08-04T02:27:19.248Z,73.90
2018-08-04T02:29:47.830Z,74.00
2018-08-04T02:32:16.354Z,74.30
2018-08-04T02:34:44.911Z,74.40
2018-08-04T02:37:13.415Z,74.60
2018-08-04T02:39:41.948Z,74.80
2018-08-04T02:42:10.516Z,74.80
2018-08-04T02:44:39.029Z,74.60
2018-08-04T02:47:07.518Z,74.70
2018-08-04T02:49:36.107Z,74.80
2018-08-04T02:52:04.764Z,74.70
2018-08-04T02:54:33.334Z,74.60
2018-08-04T02:57:01.898Z,75.30
2018-08-04T02:59:30.473Z,75.50
2018-08-04T03:01:58.972Z,75.80
2018-08-04T03:04:27.475Z,75.70
2018-08-04T03:06:56.021Z,76.10
2018-08-04T03:09:24.594Z,76.00
2018-08-04T03:11:53.116Z,76.20
2018-08-04T03:14:21.712Z,76.50
2018-08-04T03:16:50.246Z,76.60
2018-08-04T03:19:18.884Z,76.60
2018-08-04T03:21:47.401Z,76.80
2018-08-04T03:24:15.935Z,76.70
2018-08-04T03:26:44.452Z,77.00
2018-08-04T03:29:13.009Z,77.20
2018-08-04T03:31:41.526Z,77.60
2018-08-04T03:34:10.059Z,77.40
2018-08-04T03:36:38.595Z,77.40
2018-08-04T03:39:09.288Z,77.60
2018-08-04T03:41:37.847Z,77.40
2018-08-04T03:44:06.725Z,77.30
2018-08-04T03:46:35.535Z,77.20
2018-08-04T03:49:04.122Z,77.40
2018-08-04T03:51:32.647Z,77.50
2018-08-04T03:54:01.200Z,77.30
2018-08-04T03:56:29.727Z,77.50
2018-08-04T03:58:58.260Z,77.70
2018-08-04T04:01:26.793Z,77.80
2018-08-04T04:03:55.331Z,77.90
2018-08-04T04:06:23.868Z,77.90
2018-08-04T04:08:52.376Z,78.10
2018-08-04T04:11:20.864Z,78.10
2018-08-04T04:13:49.384Z,78.10
2018-08-04T04:16:17.939Z,78.40
2018-08-04T04:18:46.482Z,78.40
2018-08-04T04:21:15.015Z,78.50
2018-08-04T04:23:43.541Z,78.60
2018-08-04T04:26:12.082Z,78.80
2018-08-04T04:28:40.665Z,78.70
2018-08-04T04:31:09.246Z,78.60
2018-08-04T04:33:37.767Z,78.70
2018-08-04T04:36:06.264Z,78.70
2018-08-04T04:38:34.775Z,78.70
2018-08-04T04:41:03.317Z,79.10
2018-08-04T04:43:31.861Z,79.10
2018-08-04T04:46:00.434Z,78.80
2018-08-04T04:48:29.084Z,78.80
2018-08-04T04:50:57.612Z,78.90
2018-08-04T04:53:26.129Z,79.10
2018-08-04T04:55:54.685Z,79.00
2018-08-04T04:58:23.227Z,78.80
2018-08-04T05:00:51.777Z,78.80
2018-08-04T05:03:20.279Z,78.80
2018-08-04T05:05:48.877Z,78.60
2018-08-04T05:08:17.394Z,78.80
2018-08-04T05:10:45.906Z,79.10
2018-08-04T05:13:14.480Z,78.50
2018-08-04T05:15:42.938Z,78.40
2018-08-04T05:18:11.460Z,78.10
2018-08-04T05:20:39.963Z,78.10
2018-08-04T05:23:08.508Z,77.70
2018-08-04T05:25:37.086Z,77.20
2018-08-04T05:28:05.630Z,77.20
2018-08-04T05:30:34.145Z,77.40
2018-08-04T05:33:02.725Z,77.40
2018-08-04T05:35:31.256Z,77.00
2018-08-04T05:37:59.772Z,76.30
2018-08-04T05:40:28.287Z,76.20
2018-08-04T05:42:56.791Z,76.20
2018-08-04T05:45:25.362Z,76.00
2018-08-04T05:47:53.865Z,75.80
2018-08-04T05:50:22.436Z,76.20
2018-08-04T05:52:50.939Z,76.20
2018-08-04T05:55:19.518Z,75.60
2018-08-04T05:57:48.032Z,75.70
2018-08-04T06:00:16.614Z,75.40
2018-08-04T06:02:45.155Z,75.00
2018-08-04T06:05:13.704Z,75.30
2018-08-04T06:07:42.202Z,74.40
2018-08-04T06:10:10.719Z,73.90
2018-08-04T06:12:39.239Z,73.20
2018-08-04T06:15:07.798Z,72.60
2018-08-04T06:17:36.290Z,72.50
2018-08-04T06:20:05.512Z,72.30
2018-08-04T06:22:34.014Z,71.70
2018-08-04T06:25:02.518Z,72.40
2018-08-04T06:27:31.050Z,71.80
2018-08-04T06:29:59.567Z,70.70
2018-08-04T06:32:28.121Z,70.00
2018-08-04T06:34:56.630Z,68.80
2018-08-04T06:37:25.155Z,68.50
2018-08-04T06:39:53.695Z,68.10
2018-08-04T06:42:22.206Z,67.90
2018-08-04T06:44:50.711Z,67.50
2018-08-04T06:47:19.223Z,66.70
2018-08-04T06:49:47.788Z,66.10
2018-08-04T06:52:16.294Z,65.10
2018-08-04T06:54:44.888Z,64.80
2018-08-04T06:57:13.438Z,65.10
2018-08-04T06:59:41.979Z,63.00
2018-08-04T07:02:10.497Z,60.30
2018-08-04T07:04:39.019Z,59.50
2018-08-04T07:07:08.072Z,59.80
2018-08-04T07:09:36.625Z,58.70
2018-08-04T07:12:05.176Z,58.80
2018-08-04T07:14:33.712Z,56.40
2018-08-04T07:17:02.246Z,51.10
2018-08-04T07:19:30.777Z,51.90
2018-08-04T07:21:59.301Z,49.20
2018-08-04T07:24:27.804Z,49.40
2018-08-04T07:26:56.420Z,46.70
2018-08-04T07:29:24.943Z,46.90
2018-08-04T07:31:53.444Z,46.90
2018-08-04T07:34:21.987Z,47.20
2018-08-04T07:36:50.541Z,46.90
2018-08-04T07:39:19.078Z,44.40
2018-08-04T07:41:47.607Z,45.20
2018-08-04T07:44:16.121Z,43.70
2018-08-04T07:46:44.644Z,43.40
2018-08-04T07:49:13.199Z,44.00
2018-08-04T07:51:41.704Z,42.40
2018-08-04T07:54:10.246Z,42.60
2018-08-04T07:56:38.783Z,40.90
2018-08-04T07:59:07.345Z,43.00
2018-08-04T08:01:35.834Z,42.50
2018-08-04T08:04:04.366Z,40.50
2018-08-04T08:06:33.925Z,41.70
2018-08-04T08:09:02.639Z,40.70
2018-08-04T08:11:31.175Z,38.90
2018-08-04T08:13:59.733Z,38.40
2018-08-04T08:16:28.228Z,38.00
2018-08-04T08:18:56.748Z,37.30
2018-08-04T08:21:25.234Z,37.20
2018-08-04T08:23:53.816Z,37.00
2018-08-04T08:26:22.395Z,35.20
2018-08-04T08:28:51.119Z,37.20
2018-08-04T08:31:19.721Z,35.70
2018-08-04T08:33:48.233Z,34.70
2018-08-04T08:36:16.813Z,36.80
2018-08-04T08:38:45.316Z,37.50
2018-08-04T08:41:13.866Z,34.80
2018-08-04T08:43:42.471Z,35.10
2018-08-04T08:46:10.988Z,34.00
2018-08-04T08:48:39.512Z,34.80
2018-08-04T08:51:08.053Z,34.60
2018-08-04T08:53:36.774Z,35.60
2018-08-04T08:56:05.989Z,34.80
2018-08-04T08:58:34.542Z,33.70
2018-08-04T09:01:03.377Z,34.70
2018-08-04T09:03:32.209Z,32.70
2018-08-04T09:06:00.857Z,34.30
2018-08-04T09:08:30.496Z,31.80
2018-08-04T09:10:59.034Z,32.30
2018-08-04T09:13:27.601Z,31.60
2018-08-04T09:15:56.121Z,32.70
2018-08-04T09:18:24.702Z,32.60
2018-08-04T09:20:53.280Z,32.90
2018-08-04T09:23:21.813Z,33.60
2018-08-04T09:25:50.375Z,33.40
2018-08-04T09:28:18.912Z,32.90
2018-08-04T09:30:47.463Z,33.00
2018-08-04T09:33:15.979Z,34.60
2018-08-04T09:35:44.654Z,35.20
2018-08-04T09:38:13.252Z,34.00
2018-08-04T09:40:41.795Z,34.90
2018-08-04T09:43:10.361Z,33.00
2018-08-04T09:45:38.854Z,32.90
2018-08-04T09:48:07.407Z,32.60
2018-08-04T09:50:36.044Z,32.90
2018-08-04T09:53:04.665Z,32.30
2018-08-04T09:55:33.163Z,30.70
2018-08-04T09:58:01.697Z,30.40
2018-08-04T10:00:35.364Z,30.80
2018-08-04T10:03:03.896Z,29.80
2018-08-04T10:05:32.743Z,30.30
2018-08-04T10:08:01.283Z,30.30
2018-08-04T10:10:29.804Z,30.30
2018-08-04T10:12:58.497Z,30.90
2018-08-04T10:15:27.100Z,29.80
2018-08-04T10:17:55.619Z,30.80
2018-08-04T10:20:24.240Z,32.30
2018-08-04T10:22:52.738Z,33.80
2018-08-04T10:25:21.304Z,34.90
2018-08-04T10:27:49.827Z,35.70
2018-08-04T10:30:18.456Z,34.70
2018-08-04T10:32:47.042Z,36.50
2018-08-04T10:35:15.618Z,36.00
2018-08-04T10:37:44.160Z,38.00
2018-08-04T10:40:12.702Z,37.30
2018-08-04T10:42:41.262Z,37.70
2018-08-04T10:45:09.808Z,37.50
2018-08-04T10:47:38.372Z,38.00
2018-08-04T10:50:07.185Z,40.00
2018-08-04T10:52:35.737Z,38.20
2018-08-04T10:55:04.301Z,37.90
2018-08-04T10:57:32.815Z,36.70
2018-08-04T11:00:01.328Z,36.90
2018-08-04T11:02:30.252Z,37.50
2018-08-04T11:04:58.845Z,33.90
2018-08-04T11:07:27.384Z,35.20
2018-08-04T11:09:55.930Z,36.90
2018-08-04T11:12:24.505Z,36.70
2018-08-04T11:14:53.165Z,34.80
2018-08-04T11:17:21.713Z,33.80
2018-08-04T11:19:50.261Z,33.80
2018-08-04T11:22:19.124Z,33.80
2018-08-04T11:24:47.660Z,33.00
2018-08-04T11:27:16.249Z,32.90
2018-08-04T11:29:44.789Z,32.90
2018-08-04T11:32:13.418Z,33.50
2018-08-04T11:34:41.978Z,33.70
2018-08-04T11:37:10.513Z,34.90
2018-08-04T11:39:39.039Z,35.00
2018-08-04T11:42:09.842Z,34.50
2018-08-04T11:44:38.429Z,36.10
2018-08-04T11:47:06.988Z,36.00
2018-08-04T11:49:35.590Z,37.50
2018-08-04T11:52:04.200Z,37.50
2018-08-04T11:54:32.852Z,35.90
2018-08-04T11:57:01.369Z,36.50
2018-08-04T11:59:29.922Z,35.40
2018-08-04T12:01:58.587Z,36.70
2018-08-04T12:04:27.124Z,36.50
2018-08-04T12:06:55.647Z,35.80
2018-08-04T12:09:24.255Z,35.30
2018-08-04T12:11:52.820Z,36.20
2018-08-04T12:14:21.327Z,33.80
2018-08-04T12:16:49.865Z,33.30
2018-08-04T12:19:18.368Z,33.80
2018-08-04T12:21:46.878Z,32.60
2018-08-04T12:24:15.401Z,33.40
2018-08-04T12:26:43.936Z,33.30
2018-08-04T12:29:12.451Z,33.80
2018-08-04T12:31:40.976Z,33.90
2018-08-04T12:34:09.534Z,35.80
2018-08-04T12:36:38.143Z,35.70
2018-08-04T12:39:08.860Z,35.70
2018-08-04T12:41:37.433Z,35.20
2018-08-04T12:44:07.140Z,34.30
2018-08-04T12:46:35.723Z,34.90
2018-08-04T12:49:04.319Z,33.90
2018-08-04T12:51:32.891Z,34.00
2018-08-04T12:54:01.454Z,33.80
2018-08-04T12:56:29.995Z,34.90
2018-08-04T12:58:58.517Z,36.20
2018-08-04T13:01:27.044Z,36.30
2018-08-04T13:03:55.605Z,35.50
2018-08-04T13:06:24.857Z,35.90
2018-08-04T13:08:53.463Z,34.70
2018-08-04T13:11:21.985Z,34.50
2018-08-04T13:13:50.583Z,35.60
2018-08-04T13:16:19.078Z,35.30
2018-08-04T13:18:47.712Z,35.30
2018-08-04T13:21:17.981Z,36.60
2018-08-04T13:23:46.508Z,36.50
2018-08-04T13:26:15.031Z,36.10
2018-08-04T13:28:43.589Z,36.40
2018-08-04T13:31:12.107Z,36.70
2018-08-04T13:33:40.639Z,36.80
2018-08-04T13:36:09.173Z,36.80
2018-08-04T13:38:37.697Z,38.40
2018-08-04T13:41:06.217Z,38.20
2018-08-04T13:43:34.770Z,38.00
2018-08-04T13:46:03.399Z,38.50
2018-08-04T13:48:31.944Z,38.40
2018-08-04T13:51:00.608Z,38.60
2018-08-04T13:53:29.116Z,38.30
2018-08-04T13:55:57.669Z,38.30
2018-08-04T13:58:26.188Z,38.20
2018-08-04T14:00:54.787Z,38.40
2018-08-04T14:03:23.302Z,38.20
2018-08-04T14:05:52.260Z,38.10
2018-08-04T14:08:20.763Z,37.30
2018-08-04T14:10:49.304Z,38.00
2018-08-04T14:13:17.878Z,37.50
2018-08-04T14:15:46.792Z,37.80
2018-08-04T14:18:15.341Z,37.80
2018-08-04T14:20:43.891Z,38.00
2018-08-04T14:23:12.449Z,37.30
2018-08-04T14:25:40.987Z,36.80
2018-08-04T14:28:09.511Z,37.60
2018-08-04T14:30:38.072Z,37.60
2018-08-04T14:33:06.578Z,36.90
2018-08-04T14:35:35.161Z,37.50
2018-08-04T14:38:03.705Z,36.90
2018-08-04T14:40:32.429Z,36.60
2018-08-04T14:43:01.041Z,36.30
2018-08-04T14:45:29.595Z,36.10
2018-08-04T14:47:58.261Z,36.30
2018-08-04T14:50:26.826Z,36.30
2018-08-04T14:52:55.416Z,37.10
2018-08-04T14:55:24.026Z,37.10
2018-08-04T14:57:52.633Z,37.70
2018-08-04T15:00:21.179Z,37.80
2018-08-04T15:02:49.699Z,36.90
2018-08-04T15:05:18.284Z,37.00
2018-08-04T15:07:46.818Z,37.00
2018-08-04T15:10:15.401Z,36.10
2018-08-04T15:12:43.940Z,35.80
2018-08-04T15:15:12.454Z,36.20
2018-08-04T15:17:41.087Z,35.00
2018-08-04T15:20:09.661Z,35.20
2018-08-04T15:22:38.241Z,36.90
2018-08-04T15:25:06.911Z,37.70
2018-08-04T15:27:35.585Z,38.40
2018-08-04T15:30:04.361Z,39.30
2018-08-04T15:32:32.913Z,38.20
2018-08-04T15:35:01.629Z,38.90
2018-08-04T15:37:30.431Z,39.90
2018-08-04T15:39:58.902Z,40.20
2018-08-04T15:42:27.419Z,40.10
2018-08-04T15:44:55.984Z,40.50
2018-08-04T15:47:24.468Z,40.60
2018-08-04T15:49:52.963Z,40.70
2018-08-04T15:52:21.507Z,41.10
2018-08-04T15:54:50.447Z,41.10
2018-08-04T15:57:18.965Z,41.00
2018-08-04T15:59:47.453Z,41.50
2018-08-04T16:02:15.978Z,42.20
2018-08-04T16:04:44.490Z,42.40
2018-08-04T16:07:13.018Z,43.00
2018-08-04T16:09:41.519Z,43.30
2018-08-04T16:12:10.042Z,43.60
2018-08-04T16:14:38.586Z,43.70
2018-08-04T16:17:07.590Z,43.40
2018-08-04T16:19:36.126Z,43.60
2018-08-04T16:22:04.654Z,44.00
2018-08-04T16:24:33.185Z,43.40
2018-08-04T16:27:01.715Z,43.80
2018-08-04T16:29:30.206Z,44.80
2018-08-04T16:31:58.712Z,44.70
2018-08-04T16:34:27.232Z,43.90
2018-08-04T16:36:55.858Z,44.10
2018-08-04T16:39:24.374Z,44.10
2018-08-04T16:41:52.903Z,43.80
2018-08-04T16:44:21.440Z,42.50
2018-08-04T16:46:50.022Z,42.50
2018-08-04T16:49:18.638Z,41.60
2018-08-04T16:51:47.171Z,42.80
2018-08-04T16:54:15.735Z,41.80
2018-08-04T16:56:44.276Z,42.30
2018-08-04T16:59:12.909Z,42.30
2018-08-04T17:01:41.436Z,42.40
2018-08-04T17:04:11.999Z,43.00
2018-08-04T17:06:40.529Z,43.20
2018-08-04T17:09:11.245Z,42.70
2018-08-04T17:11:39.860Z,43.80
2018-08-04T17:14:08.830Z,44.20
2018-08-04T17:16:37.371Z,44.20
2018-08-04T17:19:06.076Z,45.00
2018-08-04T17:21:34.607Z,44.70
2018-08-04T17:24:03.150Z,44.40
2018-08-04T17:26:31.663Z,44.80
2018-08-04T17:29:00.171Z,44.70
2018-08-04T17:31:28.706Z,44.80
2018-08-04T17:33:57.226Z,45.40
2018-08-04T17:36:25.762Z,46.50
2018-08-04T17:38:54.329Z,47.20
2018-08-04T17:41:22.843Z,47.90
2018-08-04T17:43:51.622Z,48.80
2018-08-04T17:46:20.210Z,49.60
2018-08-04T17:48:48.722Z,50.20
2018-08-04T17:51:17.319Z,50.40
2018-08-04T17:53:45.920Z,50.90
2018-08-04T17:56:14.453Z,51.00
2018-08-04T17:58:42.952Z,51.10
2018-08-04T18:01:11.626Z,50.70
2018-08-04T18:03:40.157Z,50.70
2018-08-04T18:06:08.716Z,50.60
2018-08-04T18:08:37.213Z,50.30
2018-08-04T18:11:05.807Z,50.70
2018-08-04T18:13:34.334Z,50.90
2018-08-04T18:16:02.870Z,51.20
2018-08-04T18:18:31.371Z,51.50
2018-08-04T18:20:59.948Z,51.60
2018-08-04T18:23:28.534Z,51.60
2018-08-04T18:25:57.043Z,51.80
2018-08-04T18:28:25.671Z,52.10
2018-08-04T18:30:54.255Z,52.10
2018-08-04T18:33:22.789Z,52.30
2018-08-04T18:35:51.359Z,52.70
2018-08-04T18:38:19.978Z,53.40
2018-08-04T18:40:48.614Z,53.10
2018-08-04T18:43:17.171Z,53.40
2018-08-04T18:45:45.760Z,53.10
2018-08-04T18:48:14.281Z,53.00
2018-08-04T18:50:42.915Z,53.30
2018-08-04T18:53:11.536Z,53.90
2018-08-04T18:55:40.067Z,54.60
2018-08-04T18:58:08.876Z,55.60
2018-08-04T19:00:37.683Z,55.60
2018-08-04T19:03:06.354Z,55.70
2018-08-04T19:05:34.980Z,56.10
2018-08-04T19:08:03.538Z,56.10
2018-08-04T19:10:32.057Z,56.10
2018-08-04T19:13:00.593Z,56.30
2018-08-04T19:15:29.122Z,56.50
2018-08-04T19:17:57.646Z,56.60
2018-08-04T19:20:26.163Z,56.80
2018-08-04T19:22:54.695Z,57.00
2018-08-04T19:25:23.225Z,57.20
2018-08-04T19:27:51.841Z,57.40
2018-08-04T19:30:20.353Z,57.60
2018-08-04T19:32:48.859Z,57.70
2018-08-04T19:35:17.428Z,57.90
2018-08-04T19:37:45.991Z,58.40
2018-08-04T19:40:14.544Z,58.90
2018-08-04T19:42:43.080Z,59.50
2018-08-04T19:45:11.622Z,59.90
2018-08-04T19:47:40.141Z,60.40
2018-08-04T19:50:08.722Z,61.00
2018-08-04T19:52:37.341Z,61.30
2018-08-04T19:55:06.190Z,61.80
2018-08-04T19:57:34.747Z,62.10
2018-08-04T20:00:03.390Z,62.00
2018-08-04T20:02:31.975Z,62.20
2018-08-04T20:05:00.515Z,62.40
2018-08-04T20:07:29.030Z,62.30
2018-08-04T20:09:57.549Z,62.60
2018-08-04T20:12:26.111Z,63.00
2018-08-04T20:14:54.686Z,63.50
2018-08-04T20:17:23.240Z,63.70
2018-08-04T20:19:51.865Z,63.80
2018-08-04T20:22:20.381Z,63.90
2018-08-04T20:24:48.957Z,64.50
2018-08-04T20:27:17.513Z,64.90
2018-08-04T20:29:46.109Z,64.80
2018-08-04T20:32:14.626Z,65.30
2018-08-04T20:34:43.144Z,65.70
2018-08-04T20:37:11.704Z,65.80
2018-08-04T20:39:40.305Z,66.10
2018-08-04T20:42:08.863Z,65.80
2018-08-04T20:44:37.479Z,65.70
2018-08-04T20:47:06.064Z,66.10
2018-08-04T20:49:34.621Z,66.40
2018-08-04T20:52:03.178Z,66.40
2018-08-04T20:54:31.760Z,66.40
2018-08-04T20:57:00.350Z,67.00
2018-08-04T20:59:28.983Z,67.50
2018-08-04T21:02:00.614Z,67.90
2018-08-04T21:04:30.438Z,68.10
2018-08-04T21:06:59.089Z,68.20
2018-08-04T21:09:27.653Z,68.30
2018-08-04T21:11:56.743Z,68.50
2018-08-04T21:14:26.441Z,68.60
2018-08-04T21:16:55.929Z,69.10
2018-08-04T21:19:25.051Z,68.70
2018-08-04T21:21:53.649Z,68.90
2018-08-04T21:24:23.410Z,69.20
2018-08-04T21:26:52.895Z,69.50
2018-08-04T21:29:21.886Z,69.60
2018-08-04T21:31:50.446Z,69.90
2018-08-04T21:34:19.227Z,70.10
2018-08-04T21:36:47.801Z,70.20
2018-08-04T21:39:18.460Z,70.50
2018-08-04T21:41:47.461Z,70.40
2018-08-04T21:44:16.145Z,70.60
2018-08-04T21:46:46.925Z,70.80
2018-08-04T21:49:15.526Z,70.80
2018-08-04T21:51:48.220Z,70.90
2018-08-04T21:54:19.921Z,71.30
2018-08-04T21:56:46.588Z,71.70
2018-08-04T21:59:15.143Z,71.70
2018-08-04T22:01:49.110Z,71.40
2018-08-04T22:04:17.618Z,71.20
2018-08-04T22:07:58.168Z,71.20
2018-08-04T22:10:26.761Z,71.20
2018-08-04T22:12:55.427Z,70.90
2018-08-04T22:15:23.940Z,71.50
2018-08-04T22:17:52.473Z,71.20
2018-08-04T22:20:22.000Z,71.30
2018-08-04T22:22:50.590Z,71.60
2018-08-04T22:25:20.477Z,71.20
2018-08-04T22:27:49.005Z,71.50
2018-08-04T22:30:18.875Z,71.70
2018-08-04T22:32:47.822Z,72.00
2018-08-04T22:35:16.445Z,71.40
2018-08-04T22:37:45.118Z,71.80
2018-08-04T22:40:14.680Z,72.10
2018-08-04T22:42:43.621Z,71.80
2018-08-04T22:46:21.910Z,71.60
2018-08-04T22:48:51.684Z,71.60
2018-08-04T22:51:23.324Z,71.10
2018-08-04T22:53:51.863Z,71.20
2018-08-04T22:56:20.440Z,71.50
2018-08-04T22:58:48.954Z,71.60
2018-08-04T23:01:17.478Z,71.60
2018-08-04T23:06:14.584Z,72.00
2018-08-04T23:08:43.134Z,72.20
2018-08-04T23:11:11.683Z,72.50
2018-08-04T23:13:40.166Z,72.40
2018-08-04T23:16:08.697Z,72.30
2018-08-04T23:18:37.216Z,72.90
2018-08-04T23:21:06.116Z,72.90
2018-08-04T23:23:34.680Z,73.60
2018-08-04T23:26:03.235Z,74.50
2018-08-04T23:28:31.780Z,75.30
2018-08-04T23:31:00.331Z,75.70
2018-08-04T23:33:28.843Z,75.60
2018-08-04T23:35:57.355Z,75.90
2018-08-04T23:38:25.905Z,75.50
2018-08-04T23:40:54.419Z,75.90
2018-08-04T23:43:22.928Z,76.10
2018-08-04T23:45:51.435Z,76.40
2018-08-04T23:48:19.981Z,76.10
2018-08-04T23:50:48.513Z,76.70
2018-08-04T23:53:17.072Z,76.90
2018-08-04T23:55:45.608Z,76.50
2018-08-04T23:58:14.171Z,77.20
